Time;durP1;ratioP1;P1;durP2;ratioP2;P2;SDS_P1;SDS_P2;PMS_P1;PMS_P2;Temp;Humidity;BMP_temperature;BMP_pressure;BME280_temperature;BME280_humidity;BME280_pressure;Samples;Min_cycle;Max_cycle;Signal;HPM_P1;HPM_P2
2023/08/18 00:01:14;;;;;;;7.63;6.15;;;;;;;24.41;65.51;100433.25;41555146;28;20588;-69
2023/08/18 00:21:14;;;;;;;9.93;6.50;;;;;;;24.35;65.25;100415.31;41407925;28;20057;-70
2023/08/18 00:41:14;;;;;;;9.15;5.88;;;;;;;24.32;64.81;100410.31;41524143;28;20068;-70
2023/08/18 01:01:15;;;;;;;7.63;6.30;;;;;;;24.24;64.90;100405.69;41561257;28;20045;-69
2023/08/18 01:21:17;;;;;;;8.05;6.10;;;;;;;24.21;65.46;100396.22;41542841;28;20122;-69
2023/08/18 01:41:22;;;;;;;7.50;6.20;;;;;;;23.93;65.52;100352.91;41467802;28;20061;-70
2023/08/18 02:01:22;;;;;;;9.55;5.90;;;;;;;24.27;64.87;100398.31;41576795;28;20041;-70
2023/08/18 02:21:23;;;;;;;9.05;6.00;;;;;;;24.08;65.09;100387.72;41617235;28;20050;-70
2023/08/18 02:41:24;;;;;;;7.43;6.38;;;;;;;23.92;65.32;100353.84;41595536;28;20041;-73
2023/08/18 03:01:24;;;;;;;8.68;6.20;;;;;;;24.06;65.21;100372.00;41576316;28;20099;-71
2023/08/18 03:21:24;;;;;;;7.05;6.10;;;;;;;23.84;65.15;100373.06;41598608;28;20038;-71
2023/08/18 03:41:25;;;;;;;13.82;5.90;;;;;;;24.07;64.78;100388.69;41549128;28;20038;-69
2023/08/18 04:01:25;;;;;;;9.68;6.07;;;;;;;23.98;65.42;100382.41;41536617;28;20041;-69
2023/08/18 04:21:26;;;;;;;11.45;6.78;;;;;;;23.99;65.19;100381.44;41548205;28;20044;-71
2023/08/18 04:41:27;;;;;;;7.80;6.10;;;;;;;24.06;64.58;100376.44;41557723;28;20065;-69
2023/08/18 05:01:28;;;;;;;8.82;5.70;;;;;;;24.45;62.91;100400.28;41530223;28;20084;-71
2023/08/18 05:21:29;;;;;;;6.80;5.50;;;;;;;24.14;63.29;100403.88;41480678;28;20045;-68
2023/08/18 05:41:30;;;;;;;10.45;6.28;;;;;;;23.89;63.10;100422.84;41501772;28;20038;-68
2023/08/18 06:01:40;;;;;;;10.15;6.35;;;;;;;23.70;63.39;100407.81;41495930;28;20045;-69
2023/08/18 06:21:42;;;;;;;9.63;6.63;;;;;;;24.10;61.63;100413.06;41601509;28;20068;-71
2023/08/18 06:41:43;;;;;;;11.95;6.03;;;;;;;24.04;61.03;100373.94;41602460;28;20063;-81
2023/08/18 07:01:43;;;;;;;8.70;6.28;;;;;;;24.76;60.21;100439.84;41608575;28;20049;-73
2023/08/18 07:21:43;;;;;;;10.75;6.32;;;;;;;24.33;61.17;100396.94;41545275;28;20436;-77
2023/08/18 07:41:44;;;;;;;9.13;6.25;;;;;;;25.09;60.18;100433.22;41528607;28;20111;-76
2023/08/18 08:01:44;;;;;;;8.43;6.40;;;;;;;24.87;61.17;100458.22;41525435;28;20460;-76
2023/08/18 08:21:45;;;;;;;8.15;7.18;;;;;;;25.25;61.12;100485.63;41522910;28;20515;-74
2023/08/18 08:41:45;;;;;;;7.45;6.03;;;;;;;25.30;59.58;100497.59;41553041;28;20050;-72
2023/08/18 09:01:46;;;;;;;7.07;6.10;;;;;;;25.48;58.25;100485.28;41549155;28;20041;-74
2023/08/18 09:21:49;;;;;;;8.13;6.40;;;;;;;25.34;58.67;100452.13;41541503;28;20049;-76
2023/08/18 09:41:53;;;;;;;8.80;6.13;;;;;;;25.76;58.24;100473.91;41522218;28;20525;-73
2023/08/18 10:01:55;;;;;;;12.65;6.85;;;;;;;25.76;57.77;100461.47;41600749;28;20048;-71
2023/08/18 10:21:55;;;;;;;8.05;7.00;;;;;;;25.94;58.22;100450.91;41571851;28;20113;-77
2023/08/18 10:42:13;;;;;;;7.95;6.55;;;;;;;26.04;57.30;100453.47;41547170;28;20089;-76
2023/08/18 11:02:15;;;;;;;7.35;6.18;;;;;;;26.20;55.41;100411.22;41514688;28;20139;-76
2023/08/18 11:22:16;;;;;;;7.75;6.53;;;;;;;26.72;56.43;100422.94;41537735;28;20096;-78
2023/08/18 11:42:19;;;;;;;7.35;5.70;;;;;;;27.04;54.17;100418.84;41516757;28;20049;-75
2023/08/18 12:02:23;;;;;;;8.10;5.80;;;;;;;27.26;53.21;100406.03;41556048;28;21096;-78
2023/08/18 12:22:23;;;;;;;7.93;5.00;;;;;;;27.31;52.12;100391.25;41503582;28;20049;-77
2023/08/18 12:42:24;;;;;;;4.93;4.35;;;;;;;27.58;51.71;100394.69;41571772;28;20038;-77
2023/08/18 13:02:24;;;;;;;5.90;5.30;;;;;;;27.48;51.61;100405.47;41598924;28;20487;-77
2023/08/18 13:22:25;;;;;;;6.75;4.93;;;;;;;27.37;50.80;100376.47;41594985;28;20061;-78
2023/08/18 13:42:26;;;;;;;5.38;4.88;;;;;;;27.24;50.85;100381.41;41633941;28;20374;-84
2023/08/18 14:02:27;;;;;;;5.97;4.82;;;;;;;27.56;51.06;100378.09;41625495;28;20095;-78
2023/08/18 14:22:27;;;;;;;10.30;5.10;;;;;;;26.97;50.21;100389.41;41613606;28;20057;-77
2023/08/18 14:42:28;;;;;;;9.88;4.95;;;;;;;26.71;51.46;100394.69;41592072;28;20045;-72
2023/08/18 15:02:28;;;;;;;5.47;4.55;;;;;;;26.73;50.26;100400.69;41653969;28;20037;-76
2023/08/18 15:22:28;;;;;;;9.15;4.78;;;;;;;26.59;52.40;100361.44;41603988;28;20045;-76
2023/08/18 15:42:34;;;;;;;5.18;4.25;;;;;;;26.44;52.20;100337.22;41601743;28;20074;-75
2023/08/18 16:02:36;;;;;;;9.80;5.07;;;;;;;26.36;53.28;100290.22;41622352;28;20091;-69
2023/08/18 16:22:46;;;;;;;6.20;4.65;;;;;;;26.13;50.76;100184.56;41627102;28;20045;-72
2023/08/18 16:42:50;;;;;;;6.85;4.63;;;;;;;26.79;51.54;100324.88;41568360;28;20057;-69
2023/08/18 17:02:53;;;;;;;11.38;5.60;;;;;;;26.72;53.58;100331.78;41603238;28;20042;-70
2023/08/18 17:22:53;;;;;;;9.48;5.13;;;;;;;26.40;53.37;100336.72;41528710;28;20129;-70
2023/08/18 17:42:56;;;;;;;12.32;5.60;;;;;;;26.29;53.71;100331.66;41481304;28;20051;-70
2023/08/18 18:02:57;;;;;;;11.70;7.20;;;;;;;26.97;53.89;100376.13;41573679;28;20041;-72
2023/08/18 18:22:59;;;;;;;7.60;5.80;;;;;;;26.04;54.80;100421.66;41549525;28;20519;-67
2023/08/18 18:43:01;;;;;;;8.65;6.15;;;;;;;25.94;55.53;100442.94;41593709;28;20566;-69
2023/08/18 19:03:02;;;;;;;12.67;6.33;;;;;;;25.77;56.26;100443.72;41621992;28;20045;-69
2023/08/18 19:23:03;;;;;;;11.77;6.90;;;;;;;25.82;56.71;100450.25;41536576;28;20291;-67
2023/08/18 19:43:13;;;;;;;11.18;7.05;;;;;;;25.53;58.37;100455.69;41605313;28;20097;-69
2023/08/18 20:03:15;;;;;;;11.82;6.75;;;;;;;26.94;55.51;100418.97;41573541;28;20451;-69
2023/08/18 20:23:15;;;;;;;13.13;7.78;;;;;;;26.13;62.12;100425.25;41483043;28;20050;-66
2023/08/18 20:43:18;;;;;;;13.75;9.35;;;;;;;25.61;65.42;100431.09;41490383;28;20043;-71
2023/08/18 21:03:18;;;;;;;14.47;8.93;;;;;;;25.62;66.92;100444.22;41532831;28;20403;-66
2023/08/18 21:23:21;;;;;;;12.98;9.50;;;;;;;25.33;68.74;100452.25;41574905;28;20377;-66
2023/08/18 21:43:24;;;;;;;12.55;9.95;;;;;;;25.23;67.86;100439.88;41542280;28;20045;-69
2023/08/18 22:03:26;;;;;;;;;;;;;;;25.41;66.68;100445.28;41578338;28;20049;-66
2023/08/18 22:23:26;;;;;;;15.35;10.70;;;;;;;25.15;66.84;100407.97;41601126;28;19929;-68
2023/08/18 22:43:28;;;;;;;12.90;9.32;;;;;;;24.93;66.54;100411.78;41575126;28;20046;-66
2023/08/18 23:03:29;;;;;;;9.57;8.20;;;;;;;24.82;67.35;100399.53;41555841;28;20049;-66
2023/08/18 23:23:29;;;;;;;9.27;8.35;;;;;;;24.66;67.39;100397.47;41573123;28;20500;-65
2023/08/18 23:43:31;;;;;;;11.48;8.60;;;;;;;24.52;67.69;100363.47;41562454;28;20529;-65
